Time;durP1;ratioP1;P1;durP2;ratioP2;P2;SDS_P1;SDS_P2;PMS_P1;PMS_P2;Temp;Humidity;BMP_temperature;BMP_pressure;BME280_temperature;BME280_humidity;BME280_pressure;Samples;Min_cycle;Max_cycle;Signal;HPM_P1;HPM_P2
2023/07/06 00:00:14;;;;;;;4.17;3.00;;;;;;;21.70;41.67;97588.38;5010121;28;20463;-69
2023/07/06 00:02:40;;;;;;;3.83;3.40;;;;;;;21.70;41.85;97585.72;5012704;28;20454;-69
2023/07/06 00:05:06;;;;;;;4.67;3.23;;;;;;;21.68;41.35;97585.13;5017717;28;20431;-69
2023/07/06 00:07:31;;;;;;;6.40;2.37;;;;;;;21.66;41.67;97587.19;5005505;28;20219;-69
2023/07/06 00:09:57;;;;;;;7.87;3.13;;;;;;;21.65;41.86;97577.56;5010273;28;20935;-69
2023/07/06 00:12:22;;;;;;;5.00;2.53;;;;;;;21.59;42.42;97577.38;5006365;28;20222;-69
2023/07/06 00:14:50;;;;;;;3.73;2.50;;;;;;;21.54;42.64;97577.19;5012466;28;20230;-68
2023/07/06 00:17:16;;;;;;;9.23;3.50;;;;;;;21.50;42.56;97575.97;5015365;28;20255;-69
2023/07/06 00:19:42;;;;;;;3.83;3.50;;;;;;;21.51;42.51;97574.94;5011320;28;20435;-69
2023/07/06 00:22:09;;;;;;;9.90;7.10;;;;;;;21.45;43.00;97583.78;5008565;28;20459;-69
2023/07/06 00:24:36;;;;;;;8.77;7.70;;;;;;;21.44;42.92;97587.47;4992069;28;20667;-68
2023/07/06 00:27:01;;;;;;;11.07;7.20;;;;;;;21.44;42.98;97590.97;5009641;28;20463;-67
2023/07/06 00:29:33;;;;;;;4.57;4.10;;;;;;;21.48;42.99;97591.34;5011982;28;20523;-70
2023/07/06 00:32:15;;;;;;;4.47;3.40;;;;;;;21.48;42.37;97583.34;5009838;28;20266;-70
2023/07/06 00:34:44;;;;;;;5.27;2.80;;;;;;;21.42;42.76;97584.22;5008957;28;20444;-72
2023/07/06 00:37:12;;;;;;;15.43;6.77;;;;;;;21.40;43.10;97580.94;5013797;28;20438;-70
2023/07/06 00:39:37;;;;;;;5.70;3.17;;;;;;;21.29;43.41;97588.59;5015757;28;20494;-70
2023/07/06 00:42:05;;;;;;;6.00;4.50;;;;;;;21.26;43.32;97585.50;5013445;28;20422;-68
2023/07/06 00:44:58;;;;;;;5.03;3.20;;;;;;;21.25;43.74;97582.03;5013960;28;20295;-69
2023/07/06 00:47:48;;;;;;;8.77;2.87;;;;;;;21.22;43.47;97585.13;5016548;28;20435;-68
2023/07/06 00:50:17;;;;;;;3.23;2.77;;;;;;;21.20;44.07;97589.84;5002028;28;20438;-68
2023/07/06 00:52:51;;;;;;;6.03;3.20;;;;;;;21.17;44.02;97592.94;5006067;28;20552;-70
2023/07/06 00:55:25;;;;;;;4.50;3.30;;;;;;;21.17;44.07;97593.75;5007948;28;20424;-69
2023/07/06 00:57:52;;;;;;;4.50;2.60;;;;;;;21.12;44.17;97584.75;5008816;28;20422;-70
2023/07/06 01:00:20;;;;;;;5.50;3.17;;;;;;;21.07;44.58;97587.22;5009189;28;20510;-69
2023/07/06 01:02:47;;;;;;;4.90;3.10;;;;;;;21.07;44.29;97590.72;5012047;28;20505;-69
2023/07/06 01:05:14;;;;;;;9.40;7.00;;;;;;;21.05;44.52;97586.59;5014665;28;20443;-69
2023/07/06 01:07:44;;;;;;;6.23;5.23;;;;;;;21.08;44.16;97588.84;5012160;28;20531;-70
2023/07/06 01:10:10;;;;;;;2.67;2.17;;;;;;;21.04;44.09;97590.34;5012990;28;20473;-70
2023/07/06 01:12:36;;;;;;;6.30;5.23;;;;;;;21.04;44.11;97585.81;5008420;28;20562;-68
2023/07/06 01:15:02;;;;;;;4.83;3.43;;;;;;;21.06;44.25;97578.44;5009704;28;20215;-70
2023/07/06 01:17:55;;;;;;;4.40;2.63;;;;;;;20.97;44.04;97583.16;5022593;28;21018;-68
2023/07/06 01:20:30;;;;;;;5.87;2.33;;;;;;;20.90;44.21;97577.06;5007168;28;20455;-70
2023/07/06 01:23:14;;;;;;;6.47;4.73;;;;;;;20.87;44.39;97572.94;5029750;28;20474;-70
2023/07/06 01:26:16;;;;;;;8.77;6.30;;;;;;;20.92;44.00;97574.97;5012604;28;20438;-69
2023/07/06 01:29:03;;;;;;;13.93;9.47;;;;;;;20.97;43.57;97572.50;5016250;28;20430;-69
2023/07/06 01:31:40;;;;;;;5.50;4.17;;;;;;;21.04;43.82;97567.16;5013969;28;20427;-69
2023/07/06 01:34:08;;;;;;;9.83;2.80;;;;;;;21.02;44.47;97563.88;4999302;28;20482;-69
2023/07/06 01:36:44;;;;;;;8.47;6.10;;;;;;;21.01;44.67;97560.41;5008556;28;20423;-69
2023/07/06 01:39:15;;;;;;;3.07;2.77;;;;;;;20.95;44.54;97558.56;5007022;28;20439;-70
2023/07/06 01:41:41;;;;;;;5.83;3.70;;;;;;;20.92;44.88;97556.31;5011727;28;20434;-68
2023/07/06 01:44:09;;;;;;;4.40;2.57;;;;;;;20.77;45.01;97551.25;5009781;28;20522;-71
2023/07/06 01:46:35;;;;;;;8.40;5.03;;;;;;;20.69;45.30;97549.59;5009374;28;20633;-71
2023/07/06 01:49:00;;;;;;;8.10;6.13;;;;;;;20.59;45.13;97554.56;5013391;28;20513;-69
2023/07/06 01:51:39;;;;;;;11.20;3.43;;;;;;;20.55;45.42;97556.00;5023186;28;20275;-70
2023/07/06 01:54:09;;;;;;;8.60;6.50;;;;;;;20.50;45.68;97558.47;5004617;28;20567;-69
2023/07/06 01:56:40;;;;;;;4.53;3.67;;;;;;;20.45;45.93;97561.75;4990674;28;20442;-69
2023/07/06 01:59:09;;;;;;;11.23;3.27;;;;;;;20.40;45.82;97565.03;4999414;28;20481;-69
2023/07/06 02:01:40;;;;;;;5.20;4.03;;;;;;;20.40;45.99;97567.72;5010542;28;20438;-70
2023/07/06 02:04:07;;;;;;;6.50;4.20;;;;;;;20.44;45.62;97568.09;5023654;28;20451;-71
2023/07/06 02:06:33;;;;;;;5.33;3.93;;;;;;;20.45;45.67;97568.91;5008068;28;20527;-71
2023/07/06 02:08:59;;;;;;;6.07;4.90;;;;;;;20.42;45.50;97565.63;5007844;28;20845;-69
2023/07/06 02:11:24;;;;;;;5.87;4.57;;;;;;;20.38;45.52;97559.09;5008554;28;20435;-71
2023/07/06 02:13:51;;;;;;;6.10;3.37;;;;;;;20.38;45.51;97564.44;5008379;28;20204;-70
2023/07/06 02:16:16;;;;;;;7.50;4.63;;;;;;;20.39;45.34;97557.25;5014864;28;20279;-69
2023/07/06 02:18:42;;;;;;;4.63;3.10;;;;;;;20.38;45.66;97553.78;5013635;28;20488;-69
2023/07/06 02:21:09;;;;;;;7.00;4.80;;;;;;;20.35;45.70;97558.69;5016173;28;20192;-69
2023/07/06 02:23:34;;;;;;;8.50;4.10;;;;;;;20.32;45.70;97567.91;5015981;28;21193;-69
2023/07/06 02:25:59;;;;;;;7.80;3.00;;;;;;;20.24;45.86;97573.44;5016258;28;20434;-70
2023/07/06 02:28:25;;;;;;;4.80;2.87;;;;;;;20.21;45.74;97564.03;5008109;28;20345;-72
2023/07/06 02:30:54;;;;;;;3.77;2.50;;;;;;;20.17;45.57;97561.97;5008679;28;20193;-71
2023/07/06 02:33:21;;;;;;;6.17;5.40;;;;;;;20.10;45.89;97557.47;5018000;28;20474;-69
2023/07/06 02:35:46;;;;;;;5.43;4.30;;;;;;;20.00;45.98;97562.41;5015317;28;20565;-72
2023/07/06 02:38:20;;;;;;;6.13;3.93;;;;;;;20.01;45.72;97569.34;5014191;28;20510;-71
2023/07/06 02:40:46;;;;;;;9.87;6.90;;;;;;;19.93;45.83;97558.91;5011441;28;20204;-70
2023/07/06 02:43:12;;;;;;;5.40;3.33;;;;;;;19.96;45.79;97563.81;5009894;28;20456;-69
2023/07/06 02:45:38;;;;;;;3.90;3.50;;;;;;;19.93;46.01;97562.38;5015022;28;20834;-70
2023/07/06 02:48:06;;;;;;;6.43;3.37;;;;;;;19.88;45.85;97569.34;5017485;28;20427;-69
2023/07/06 02:50:33;;;;;;;6.83;2.80;;;;;;;19.88;46.16;97556.84;5021510;28;20202;-69
2023/07/06 02:52:58;;;;;;;5.73;2.90;;;;;;;19.82;46.36;97548.84;5011382;28;20556;-71
2023/07/06 02:55:26;;;;;;;4.10;3.20;;;;;;;19.81;46.37;97569.31;5019694;28;20431;-70
2023/07/06 02:57:51;;;;;;;4.43;3.03;;;;;;;19.79;46.43;97556.19;5014754;28;20196;-69
2023/07/06 03:00:17;;;;;;;3.83;2.40;;;;;;;19.80;46.46;97560.50;5011440;28;20434;-68
2023/07/06 03:02:48;;;;;;;8.03;3.70;;;;;;;19.77;46.53;97552.94;5014315;28;20204;-71
2023/07/06 03:05:13;;;;;;;8.50;3.37;;;;;;;19.75;46.61;97554.16;5007233;28;20203;-68
2023/07/06 03:07:39;;;;;;;5.30;3.27;;;;;;;19.71;47.06;97556.41;5011439;28;20983;-72
2023/07/06 03:10:07;;;;;;;5.90;4.40;;;;;;;19.66;47.29;97550.84;5021007;28;20215;-71
2023/07/06 03:12:37;;;;;;;6.40;3.10;;;;;;;19.65;47.51;97554.56;5014726;28;20270;-69
2023/07/06 03:15:07;;;;;;;7.93;3.50;;;;;;;19.62;47.17;97549.63;5012906;28;20431;-71
2023/07/06 03:17:33;;;;;;;5.73;3.13;;;;;;;19.65;47.56;97549.25;5014991;28;20557;-70
2023/07/06 03:19:58;;;;;;;6.30;3.17;;;;;;;19.67;47.23;97551.69;5019871;28;20424;-70
2023/07/06 03:22:23;;;;;;;4.57;3.30;;;;;;;19.67;47.30;97549.84;5013193;28;20212;-71
2023/07/06 03:24:49;;;;;;;5.20;2.77;;;;;;;19.63;47.29;97551.28;5006746;28;20671;-70
2023/07/06 03:27:14;;;;;;;3.73;2.90;;;;;;;19.58;47.35;97556.38;5018273;28;20207;-69
2023/07/06 03:29:40;;;;;;;4.53;2.80;;;;;;;19.53;47.41;97556.97;5012921;28;20184;-71
2023/07/06 03:32:06;;;;;;;6.63;3.00;;;;;;;19.48;47.72;97556.75;5010710;28;20201;-72
2023/07/06 03:34:32;;;;;;;8.50;3.10;;;;;;;19.46;47.70;97550.84;5009958;28;20488;-68
2023/07/06 03:36:58;;;;;;;5.10;3.77;;;;;;;19.43;47.57;97552.03;5009843;28;20653;-69
2023/07/06 03:39:24;;;;;;;3.30;2.90;;;;;;;19.38;47.73;97549.19;5012959;28;20433;-69
2023/07/06 03:41:49;;;;;;;3.93;3.10;;;;;;;19.39;47.68;97550.81;5014387;28;20187;-68
2023/07/06 03:44:15;;;;;;;5.20;2.60;;;;;;;19.40;47.83;97548.97;5010099;28;20262;-71
2023/07/06 03:46:41;;;;;;;8.80;4.37;;;;;;;19.37;47.76;97546.72;5013825;28;20196;-69
2023/07/06 03:49:10;;;;;;;4.00;2.80;;;;;;;19.36;47.80;97553.03;5012828;28;20180;-69
2023/07/06 03:51:36;;;;;;;5.00;3.53;;;;;;;19.33;48.04;97552.44;5012980;28;20915;-70
2023/07/06 03:54:06;;;;;;;10.57;3.90;;;;;;;19.30;48.37;97550.19;5014456;28;20462;-72
2023/07/06 03:56:35;;;;;;;4.70;3.70;;;;;;;19.32;48.57;97544.66;5017137;28;20463;-72
2023/07/06 03:59:01;;;;;;;7.43;4.73;;;;;;;19.41;48.61;97543.44;5013858;28;20458;-68
2023/07/06 04:01:28;;;;;;;4.50;3.70;;;;;;;19.49;48.11;97545.09;5009699;28;20435;-70
2023/07/06 04:03:55;;;;;;;4.20;3.17;;;;;;;19.57;48.00;97541.44;5010310;28;21194;-69
2023/07/06 04:06:25;;;;;;;4.40;3.77;;;;;;;19.58;47.49;97537.75;5021597;28;20437;-69
2023/07/06 04:08:52;;;;;;;6.43;4.43;;;;;;;19.61;47.71;97543.50;5015348;28;20431;-70
2023/07/06 04:11:18;;;;;;;5.87;3.53;;;;;;;19.64;47.72;97547.59;5011463;28;20931;-69
2023/07/06 04:13:43;;;;;;;4.40;3.67;;;;;;;19.67;47.73;97552.50;5012719;28;20486;-68
2023/07/06 04:16:16;;;;;;;5.40;4.67;;;;;;;19.76;47.60;97553.97;5011759;28;21068;-71
2023/07/06 04:18:44;;;;;;;5.97;3.93;;;;;;;19.83;46.93;97556.63;5016332;28;20191;-69
2023/07/06 04:21:12;;;;;;;3.77;3.37;;;;;;;19.90;47.15;97554.00;5018232;28;20419;-70
2023/07/06 04:23:37;;;;;;;4.73;4.23;;;;;;;19.96;46.74;97561.16;5018614;28;20469;-71
2023/07/06 04:26:03;;;;;;;3.50;3.20;;;;;;;20.04;46.59;97563.59;5010031;28;20656;-72
2023/07/06 04:28:29;;;;;;;4.77;4.17;;;;;;;20.08;46.40;97559.53;5012122;28;20275;-71
2023/07/06 04:30:54;;;;;;;10.60;4.80;;;;;;;20.13;46.40;97563.41;5009501;28;20189;-69
2023/07/06 04:33:19;;;;;;;4.60;4.07;;;;;;;20.17;46.35;97564.63;5009492;28;20688;-69
2023/07/06 04:35:51;;;;;;;5.40;4.00;;;;;;;20.24;46.34;97562.78;5000676;28;20193;-72
2023/07/06 04:38:17;;;;;;;9.53;4.10;;;;;;;20.30;46.11;97561.97;5007711;28;20192;-70
2023/07/06 04:40:43;;;;;;;5.50;4.07;;;;;;;20.31;46.21;97558.28;5009745;28;20522;-69
2023/07/06 04:43:09;;;;;;;4.83;3.43;;;;;;;20.36;46.33;97561.16;5009668;28;20537;-69
2023/07/06 04:45:36;;;;;;;7.10;3.47;;;;;;;20.42;46.30;97559.50;5006629;28;20242;-69
2023/07/06 04:48:03;;;;;;;4.20;3.60;;;;;;;20.42;46.57;97565.63;5005689;28;20489;-69
2023/07/06 04:50:31;;;;;;;6.63;3.40;;;;;;;20.42;46.79;97568.28;5007741;28;21109;-69
2023/07/06 04:52:58;;;;;;;7.70;3.87;;;;;;;20.46;46.64;97570.53;5008642;28;20832;-69
2023/07/06 04:55:26;;;;;;;6.00;3.53;;;;;;;20.49;46.30;97570.94;5005647;28;20428;-73
2023/07/06 04:57:54;;;;;;;8.77;4.70;;;;;;;20.54;46.55;97581.00;5011157;28;20435;-70
2023/07/06 05:00:24;;;;;;;4.60;3.40;;;;;;;20.58;46.54;97582.19;5012434;28;20483;-70
2023/07/06 05:03:03;;;;;;;4.60;2.93;;;;;;;20.64;46.10;97577.88;5007131;28;21427;-69
2023/07/06 05:05:32;;;;;;;5.70;3.50;;;;;;;20.66;45.79;97578.50;5006904;28;21350;-73
2023/07/06 05:07:57;;;;;;;7.50;3.30;;;;;;;20.73;45.71;97584.63;4997797;28;20428;-70
2023/07/06 05:10:25;;;;;;;4.40;3.27;;;;;;;20.76;45.79;97578.13;4999489;28;20459;-71
2023/07/06 05:12:52;;;;;;;3.30;2.60;;;;;;;20.80;45.76;97581.97;5006069;28;21138;-72
2023/07/06 05:15:18;;;;;;;3.77;2.80;;;;;;;20.85;45.42;97580.34;5006645;28;20492;-71
2023/07/06 05:17:43;;;;;;;4.00;2.87;;;;;;;20.91;45.41;97583.19;5018556;28;20495;-71
2023/07/06 05:20:16;;;;;;;12.03;4.63;;;;;;;20.97;45.18;97583.16;5022856;28;20478;-71
2023/07/06 05:22:43;;;;;;;5.47;3.50;;;;;;;21.06;44.96;97590.91;5013229;28;20204;-70
2023/07/06 05:25:10;;;;;;;4.63;3.33;;;;;;;21.15;44.65;97587.00;4998128;28;20439;-69
2023/07/06 05:27:36;;;;;;;4.07;3.43;;;;;;;21.24;44.74;97591.06;5005994;28;20439;-71
2023/07/06 05:30:02;;;;;;;5.73;3.27;;;;;;;21.36;44.49;97593.06;5005630;28;20462;-73
2023/07/06 05:32:28;;;;;;;6.80;3.20;;;;;;;21.48;44.42;97594.81;5004395;28;20212;-70
2023/07/06 05:34:54;;;;;;;7.23;3.97;;;;;;;21.59;44.09;97590.72;5006189;28;20426;-69
2023/07/06 05:37:20;;;;;;;7.90;3.10;;;;;;;21.72;43.54;97587.16;5006663;28;20730;-72
2023/07/06 05:39:46;;;;;;;5.50;3.50;;;;;;;21.83;43.07;97596.31;5006349;28;20903;-72
2023/07/06 05:42:12;;;;;;;7.37;3.40;;;;;;;21.93;42.74;97593.97;5007659;28;20420;-70
2023/07/06 05:44:38;;;;;;;6.13;3.50;;;;;;;22.00;42.58;97595.78;5010612;28;20228;-70
2023/07/06 05:47:03;;;;;;;4.40;3.20;;;;;;;22.05;42.13;97594.09;5005837;28;20455;-70
2023/07/06 05:49:29;;;;;;;8.67;3.17;;;;;;;22.17;41.97;97606.75;5006930;28;20679;-71
2023/07/06 05:51:55;;;;;;;4.13;2.83;;;;;;;22.19;41.53;97600.16;5005298;28;20212;-69
2023/07/06 05:54:20;;;;;;;5.23;2.93;;;;;;;22.30;41.66;97605.84;5007531;28;20587;-69
2023/07/06 05:56:48;;;;;;;3.87;3.10;;;;;;;22.42;41.45;97600.63;5005938;28;20502;-70
2023/07/06 05:59:15;;;;;;;4.33;2.83;;;;;;;22.56;41.64;97604.81;5005496;28;20292;-71
2023/07/06 06:01:40;;;;;;;7.43;3.30;;;;;;;22.69;41.11;97609.19;5009718;28;20431;-69
2023/07/06 06:04:06;;;;;;;3.57;3.00;;;;;;;22.77;40.89;97611.59;5006979;28;20453;-70
2023/07/06 06:06:46;;;;;;;5.20;2.43;;;;;;;22.92;40.77;97611.22;5011488;28;20274;-74
2023/07/06 06:09:12;;;;;;;5.90;2.83;;;;;;;23.07;40.51;97610.84;5007202;28;20222;-72
2023/07/06 06:11:38;;;;;;;4.40;3.10;;;;;;;23.20;40.28;97606.41;5009866;28;20818;-72
2023/07/06 06:14:03;;;;;;;5.20;2.67;;;;;;;23.28;39.77;97609.59;5005517;28;20451;-70
2023/07/06 06:16:29;;;;;;;4.43;2.87;;;;;;;23.40;40.07;97609.69;5006145;28;20192;-70
2023/07/06 06:18:56;;;;;;;7.30;5.50;;;;;;;23.51;39.72;97613.44;5005992;28;20484;-72
2023/07/06 06:21:22;;;;;;;10.53;8.70;;;;;;;23.64;39.58;97612.44;5009325;28;20192;-72
2023/07/06 06:23:47;;;;;;;11.37;8.80;;;;;;;23.78;39.41;97615.75;5009585;28;21023;-72
2023/07/06 06:26:13;;;;;;;7.00;4.30;;;;;;;23.91;38.89;97610.19;5011245;28;20276;-71
2023/07/06 06:28:38;;;;;;;13.03;6.10;;;;;;;23.99;38.42;97617.13;5009896;28;20238;-72
2023/07/06 06:31:04;;;;;;;5.23;4.70;;;;;;;24.09;38.05;97616.56;5016868;28;20212;-70
2023/07/06 06:33:29;;;;;;;5.43;3.17;;;;;;;24.15;37.70;97604.94;5011070;28;20291;-71
2023/07/06 06:35:56;;;;;;;4.20;3.20;;;;;;;24.27;38.11;97610.31;5019128;28;20734;-73
2023/07/06 06:38:21;;;;;;;5.10;2.87;;;;;;;24.38;37.32;97612.19;5015170;28;20842;-69
2023/07/06 06:40:46;;;;;;;3.60;2.87;;;;;;;24.49;37.26;97612.41;5017069;28;20431;-69
2023/07/06 06:43:12;;;;;;;6.37;2.80;;;;;;;24.45;35.95;97612.06;5011535;28;20207;-69
2023/07/06 06:45:39;;;;;;;6.23;2.20;;;;;;;24.51;36.16;97611.13;5011784;28;20193;-69
2023/07/06 06:48:04;;;;;;;4.50;2.80;;;;;;;24.62;35.99;97611.38;5006654;28;20192;-70
2023/07/06 06:50:30;;;;;;;5.30;2.40;;;;;;;24.74;35.96;97608.72;5003277;28;20428;-74
2023/07/06 06:52:55;;;;;;;3.70;2.90;;;;;;;24.80;35.24;97615.84;5007278;28;20220;-74
2023/07/06 06:55:21;;;;;;;5.47;2.20;;;;;;;24.84;35.03;97614.31;5011040;28;20616;-71
2023/07/06 06:57:47;;;;;;;3.40;2.50;;;;;;;24.89;34.79;97613.63;5018269;28;20610;-71
2023/07/06 07:00:14;;;;;;;5.40;2.33;;;;;;;24.99;34.68;97614.63;5011600;28;20188;-71
2023/07/06 07:02:41;;;;;;;7.37;2.30;;;;;;;25.10;34.59;97612.16;5010113;28;20474;-72
2023/07/06 07:05:11;;;;;;;2.83;2.27;;;;;;;25.23;35.01;97619.13;5018851;28;20791;-70
2023/07/06 07:07:38;;;;;;;3.60;2.37;;;;;;;25.34;34.72;97610.25;5005331;28;20502;-70
2023/07/06 07:10:05;;;;;;;7.60;2.20;;;;;;;25.38;34.40;97614.09;5010535;28;20420;-72
2023/07/06 07:12:30;;;;;;;8.20;3.13;;;;;;;25.48;34.23;97612.69;5010741;28;20475;-70
2023/07/06 07:14:56;;;;;;;3.80;2.30;;;;;;;25.53;33.64;97613.59;5011694;28;20489;-70
2023/07/06 07:17:21;;;;;;;3.83;2.30;;;;;;;25.62;33.21;97619.41;5011090;28;20188;-69
2023/07/06 07:19:47;;;;;;;6.47;2.20;;;;;;;25.64;33.46;97613.78;5010228;28;20219;-70
2023/07/06 07:22:12;;;;;;;2.83;2.17;;;;;;;25.72;32.29;97616.06;5010143;28;20265;-70
2023/07/06 07:24:38;;;;;;;3.13;2.20;;;;;;;25.80;32.88;97620.22;5007802;28;20180;-71
2023/07/06 07:27:04;;;;;;;7.20;2.30;;;;;;;25.81;32.47;97614.66;5010179;28;20662;-70
2023/07/06 07:29:29;;;;;;;4.23;2.30;;;;;;;25.91;32.68;97614.00;5010671;28;20195;-71
2023/07/06 07:31:55;;;;;;;9.20;2.60;;;;;;;26.05;32.87;97615.31;5009354;28;20455;-69
2023/07/06 07:34:20;;;;;;;5.90;2.10;;;;;;;26.17;32.37;97614.44;5012775;28;20302;-69
2023/07/06 07:36:46;;;;;;;11.23;2.30;;;;;;;26.00;31.26;97617.09;5010534;28;20242;-72
2023/07/06 07:39:11;;;;;;;5.13;2.33;;;;;;;26.20;31.82;97605.91;5009504;28;20207;-70
2023/07/06 07:41:37;;;;;;;8.73;1.97;;;;;;;26.39;31.84;97608.38;5014351;28;20598;-70
2023/07/06 07:44:02;;;;;;;3.80;2.10;;;;;;;26.56;31.87;97602.97;5010358;28;20196;-69
2023/07/06 07:46:29;;;;;;;2.93;2.10;;;;;;;26.66;31.12;97613.88;5014684;28;20272;-72
2023/07/06 07:48:55;;;;;;;4.67;2.80;;;;;;;26.72;31.15;97607.50;5010632;28;20254;-70
2023/07/06 07:51:23;;;;;;;2.70;1.90;;;;;;;26.82;31.47;97610.38;5016413;28;20518;-70
2023/07/06 07:53:49;;;;;;;4.00;2.00;;;;;;;26.86;30.80;97605.31;5005460;28;20204;-70
2023/07/06 07:56:15;;;;;;;6.77;2.30;;;;;;;26.98;30.35;97605.19;5015078;28;20455;-71
2023/07/06 07:58:41;;;;;;;5.80;2.27;;;;;;;27.12;30.60;97609.13;5007712;28;20451;-71
2023/07/06 08:01:10;;;;;;;6.73;2.20;;;;;;;27.06;30.04;97602.06;5009642;28;20189;-70
2023/07/06 08:03:36;;;;;;;8.07;2.20;;;;;;;27.03;29.31;97597.19;5011134;28;20482;-70
2023/07/06 08:06:05;;;;;;;2.57;1.87;;;;;;;27.08;29.19;97604.50;5018146;28;20978;-71
2023/07/06 08:08:36;;;;;;;4.37;2.33;;;;;;;27.13;29.12;97601.91;5010874;28;21050;-70
2023/07/06 08:11:11;;;;;;;6.60;2.50;;;;;;;27.14;29.50;97601.63;5011311;28;20583;-71
2023/07/06 08:13:36;;;;;;;4.63;2.33;;;;;;;27.35;29.41;97596.47;5010280;28;20898;-71
2023/07/06 08:16:03;;;;;;;5.93;2.43;;;;;;;27.47;29.07;97606.34;5010444;28;20429;-71
2023/07/06 08:18:30;;;;;;;5.27;2.27;;;;;;;27.52;28.46;97603.69;5012383;28;20270;-70
2023/07/06 08:20:57;;;;;;;4.60;2.50;;;;;;;27.49;29.03;97598.81;5022730;28;20431;-72
2023/07/06 08:23:27;;;;;;;3.83;2.13;;;;;;;27.75;29.20;97591.81;5012027;28;20502;-70
2023/07/06 08:25:53;;;;;;;6.80;2.43;;;;;;;27.95;29.05;97596.59;5014998;28;20501;-71
2023/07/06 08:28:31;;;;;;;5.10;2.53;;;;;;;28.11;29.24;97604.81;5019443;28;20427;-70
2023/07/06 08:31:02;;;;;;;5.73;2.27;;;;;;;28.22;28.83;97603.03;5014144;28;20406;-70
2023/07/06 08:33:27;;;;;;;5.53;2.17;;;;;;;28.29;28.46;97598.25;5009811;28;21046;-71
2023/07/06 08:35:53;;;;;;;6.67;2.60;;;;;;;28.53;28.69;97593.28;5010066;28;20431;-71
2023/07/06 08:38:19;;;;;;;6.00;2.37;;;;;;;28.75;28.75;97601.25;5022705;28;20208;-70
2023/07/06 08:40:48;;;;;;;4.93;2.30;;;;;;;28.91;27.81;97591.38;5012028;28;20184;-72
2023/07/06 08:43:19;;;;;;;5.10;2.20;;;;;;;29.03;27.77;97593.03;5010341;28;20471;-70
2023/07/06 08:45:48;;;;;;;3.63;2.27;;;;;;;28.89;27.49;97595.41;5015361;28;20461;-72
2023/07/06 08:48:17;;;;;;;3.00;2.20;;;;;;;28.74;28.26;97591.56;5008074;28;20431;-70
2023/07/06 08:50:51;;;;;;;4.57;2.20;;;;;;;28.58;28.17;97596.00;5014277;28;20430;-71
2023/07/06 08:53:18;;;;;;;5.30;2.20;;;;;;;28.33;28.15;97602.84;5011340;28;20557;-70
2023/07/06 08:55:44;;;;;;;6.80;2.67;;;;;;;28.27;28.30;97603.88;5009684;28;20458;-71
2023/07/06 08:58:12;;;;;;;3.40;2.20;;;;;;;28.25;27.85;97597.13;5007598;28;20439;-69
2023/07/06 09:00:38;;;;;;;6.83;2.27;;;;;;;28.22;28.47;97595.78;5017939;28;20643;-71
2023/07/06 09:03:08;;;;;;;5.10;3.60;;;;;;;28.14;28.30;97593.53;5012475;28;20860;-70
2023/07/06 09:05:37;;;;;;;3.57;2.30;;;;;;;28.15;28.27;97595.16;5007415;28;20794;-71
2023/07/06 09:08:03;;;;;;;6.70;2.70;;;;;;;28.23;27.52;97597.38;5011793;28;20438;-69
2023/07/06 09:10:29;;;;;;;3.77;3.00;;;;;;;28.36;28.43;97596.94;5010484;28;20550;-69
2023/07/06 09:12:57;;;;;;;4.60;2.90;;;;;;;28.72;27.78;97584.78;5008929;28;20471;-70
2023/07/06 09:15:27;;;;;;;8.17;2.90;;;;;;;29.07;27.40;97589.53;5007532;28;20439;-69
2023/07/06 09:17:57;;;;;;;4.67;2.63;;;;;;;29.38;26.83;97583.47;5009330;28;20439;-69
2023/07/06 09:20:25;;;;;;;3.50;2.67;;;;;;;29.62;26.44;97586.50;5008021;28;20419;-70
2023/07/06 09:22:51;;;;;;;9.77;7.50;;;;;;;29.48;25.93;97586.22;5008729;28;20865;-70
2023/07/06 09:25:27;;;;;;;4.60;3.70;;;;;;;29.31;26.48;97590.97;5008392;28;20510;-70
2023/07/06 09:27:55;;;;;;;3.33;2.30;;;;;;;29.12;26.40;97586.88;5008811;28;20196;-71
2023/07/06 09:30:29;;;;;;;3.37;2.20;;;;;;;28.82;26.83;97576.75;5023656;28;20435;-71
2023/07/06 09:33:00;;;;;;;6.73;2.60;;;;;;;28.86;26.49;97591.31;5008723;28;20533;-70
2023/07/06 09:35:29;;;;;;;4.97;2.60;;;;;;;28.57;25.99;97599.78;5007183;28;20482;-70
2023/07/06 09:37:54;;;;;;;4.00;2.27;;;;;;;28.20;26.64;97597.91;5021325;28;20431;-70
2023/07/06 09:40:27;;;;;;;5.33;4.83;;;;;;;28.08;27.74;97594.53;5011432;28;20461;-70
2023/07/06 09:42:53;;;;;;;7.73;3.50;;;;;;;27.93;27.12;97593.34;5009139;28;20790;-70
2023/07/06 09:45:26;;;;;;;16.03;8.30;;;;;;;27.80;27.63;97591.84;5031112;28;20511;-70
2023/07/06 09:47:57;;;;;;;3.80;2.43;;;;;;;27.74;27.93;97592.88;5008641;28;20724;-71
2023/07/06 09:50:32;;;;;;;3.47;2.87;;;;;;;27.68;27.73;97596.59;5005996;28;20920;-70
2023/07/06 09:52:58;;;;;;;11.87;2.90;;;;;;;27.79;27.76;97592.13;5006617;28;20493;-69
2023/07/06 09:55:29;;;;;;;5.90;2.93;;;;;;;27.70;26.89;97592.59;5007473;28;20431;-71
2023/07/06 09:57:56;;;;;;;5.17;4.67;;;;;;;27.60;27.74;97595.16;5008404;28;20832;-71
2023/07/06 10:00:22;;;;;;;4.10;2.83;;;;;;;27.53;27.64;97589.19;5008724;28;20436;-70
2023/07/06 10:03:03;;;;;;;5.03;2.40;;;;;;;27.37;27.31;97596.25;5014321;28;20538;-69
2023/07/06 10:05:41;;;;;;;5.40;2.50;;;;;;;27.16;27.38;97590.59;5014612;28;20987;-70
2023/07/06 10:08:19;;;;;;;8.30;2.50;;;;;;;27.07;27.33;97597.50;5013120;28;20480;-70
2023/07/06 10:11:12;;;;;;;3.70;2.40;;;;;;;27.05;27.25;97589.69;5008294;28;20506;-71
2023/07/06 10:13:47;;;;;;;7.53;2.27;;;;;;;27.00;27.71;97599.56;5007888;28;20460;-70
2023/07/06 10:16:15;;;;;;;2.77;2.47;;;;;;;27.12;27.15;97595.69;4998934;28;20442;-70
2023/07/06 10:18:55;;;;;;;7.80;2.80;;;;;;;27.47;26.86;97591.00;5016353;28;20463;-69
2023/07/06 10:21:26;;;;;;;9.43;2.43;;;;;;;28.02;26.43;97593.69;5007658;28;20437;-69
2023/07/06 10:24:16;;;;;;;2.30;2.10;;;;;;;28.56;25.38;97586.53;5011763;28;20450;-71
2023/07/06 10:26:48;;;;;;;5.00;2.00;;;;;;;28.93;23.88;97586.53;5015731;28;20762;-71
2023/07/06 10:29:27;;;;;;;8.70;2.60;;;;;;;29.38;24.91;97586.16;5007486;28;20423;-71
2023/07/06 10:31:57;;;;;;;8.17;3.33;;;;;;;29.83;23.22;97586.53;5000194;28;20473;-70
2023/07/06 10:34:32;;;;;;;4.43;2.60;;;;;;;30.10;23.32;97589.03;5014339;28;20458;-70
2023/07/06 10:37:01;;;;;;;5.73;1.80;;;;;;;30.52;22.58;97583.56;5014350;28;20438;-70
2023/07/06 10:39:50;;;;;;;4.57;2.57;;;;;;;30.78;21.66;97587.84;5014764;28;20430;-71
2023/07/06 10:42:33;;;;;;;4.03;2.20;;;;;;;31.12;22.18;97591.00;5009821;28;20505;-70
2023/07/06 10:45:03;;;;;;;5.97;2.40;;;;;;;31.04;22.66;97589.69;5005945;28;20426;-70
2023/07/06 10:47:28;;;;;;;2.53;2.30;;;;;;;31.05;23.02;97583.97;5014047;28;20476;-71
2023/07/06 10:50:03;;;;;;;2.67;2.30;;;;;;;31.08;22.94;97583.44;5014895;28;20479;-69
2023/07/06 10:52:31;;;;;;;5.20;2.10;;;;;;;31.25;23.37;97580.41;5008652;28;20302;-69
2023/07/06 10:54:56;;;;;;;2.80;2.40;;;;;;;31.06;22.78;97590.22;5019400;28;20461;-69
2023/07/06 10:57:21;;;;;;;2.40;2.20;;;;;;;30.92;23.09;97587.28;5007804;28;20457;-69
2023/07/06 10:59:52;;;;;;;6.73;2.10;;;;;;;30.73;23.67;97593.28;5008725;28;20204;-71
2023/07/06 11:02:25;;;;;;;4.40;2.40;;;;;;;30.59;23.66;97593.03;5003638;28;20189;-70
2023/07/06 11:04:57;;;;;;;5.07;2.20;;;;;;;30.33;23.23;97586.84;5023232;28;20526;-69
2023/07/06 11:07:50;;;;;;;3.60;2.20;;;;;;;30.27;24.02;97594.16;5004700;28;20419;-69
2023/07/06 11:10:19;;;;;;;3.10;2.57;;;;;;;30.22;23.33;97585.22;5018293;28;20447;-71
2023/07/06 11:13:04;;;;;;;3.87;2.37;;;;;;;30.41;22.98;97590.88;5009096;28;21008;-69
2023/07/06 11:15:32;;;;;;;3.90;2.50;;;;;;;30.67;23.10;97580.84;5011365;28;20881;-70
2023/07/06 11:18:08;;;;;;;2.73;2.43;;;;;;;30.98;22.63;97575.34;5011605;28;20457;-70
2023/07/06 11:20:37;;;;;;;3.63;2.20;;;;;;;31.21;22.92;97583.94;5018073;28;20472;-69
2023/07/06 11:23:04;;;;;;;3.73;2.20;;;;;;;31.41;22.41;97578.41;5010183;28;20509;-70
2023/07/06 11:25:31;;;;;;;2.07;1.93;;;;;;;31.48;21.00;97569.19;5010450;28;20446;-69
2023/07/06 11:28:08;;;;;;;3.30;2.47;;;;;;;31.38;21.50;97572.75;5009756;28;20436;-69
2023/07/06 11:30:40;;;;;;;7.47;2.37;;;;;;;31.22;21.02;97574.75;5020333;28;20434;-69
2023/07/06 11:33:20;;;;;;;4.17;2.67;;;;;;;30.86;21.42;97577.56;5010852;28;20484;-71
2023/07/06 11:35:54;;;;;;;5.80;2.60;;;;;;;30.42;21.45;97574.38;5018134;28;20889;-71
2023/07/06 11:38:42;;;;;;;2.70;2.50;;;;;;;30.21;21.50;97587.09;5011265;28;20518;-70
2023/07/06 11:41:12;;;;;;;3.23;2.60;;;;;;;30.10;22.70;97583.63;5015344;28;20431;-70